createdAt,value
2023-02-22T00:02:25.745Z,18.10
2023-02-22T00:04:54.370Z,16.38
2023-02-22T00:07:26.040Z,14.57
2023-02-22T00:09:54.315Z,14.75
2023-02-22T00:12:22.925Z,14.85
2023-02-22T00:14:52.710Z,14.77
2023-02-22T00:17:24.651Z,15.27
2023-02-22T00:23:22.453Z,13.65
2023-02-22T00:25:51.388Z,11.32
2023-02-22T00:28:19.773Z,10.70
2023-02-22T00:30:48.586Z,14.27
2023-02-22T00:33:17.719Z,12.23
2023-02-22T00:35:46.518Z,11.02
2023-02-22T00:38:17.972Z,11.68
2023-02-22T00:43:15.588Z,9.65
2023-02-22T00:45:44.287Z,9.27
2023-02-22T00:48:13.384Z,9.13
2023-02-22T00:50:42.003Z,9.13
2023-02-22T00:53:11.412Z,10.13
2023-02-22T00:55:40.299Z,9.15
2023-02-22T00:58:09.301Z,9.00
2023-02-22T01:00:41.773Z,8.27
2023-02-22T01:03:13.155Z,8.75
2023-02-22T01:05:43.504Z,9.15
2023-02-22T01:08:15.671Z,10.90
2023-02-22T01:13:13.880Z,9.90
2023-02-22T01:15:45.082Z,9.38
2023-02-22T01:18:13.693Z,10.75
2023-02-22T01:20:42.221Z,11.50
2023-02-22T01:23:36.271Z,10.38
2023-02-22T01:26:06.390Z,10.93
2023-02-22T01:28:35.295Z,11.50
2023-02-22T01:31:04.422Z,13.02
2023-02-22T01:33:34.096Z,13.38
2023-02-22T01:36:03.840Z,11.48
2023-02-22T01:38:32.468Z,11.73
2023-02-22T01:41:01.809Z,10.70
2023-02-22T01:43:32.799Z,10.57
2023-02-22T01:46:06.405Z,11.13
2023-02-22T01:48:46.527Z,11.10
2023-02-22T01:51:20.686Z,9.60
2023-02-22T01:53:59.085Z,8.77
2023-02-22T01:56:31.366Z,9.35
2023-02-22T01:59:03.890Z,9.38
2023-02-22T02:01:33.727Z,10.20
2023-02-22T02:04:07.832Z,10.00
2023-02-22T02:06:37.794Z,10.82
2023-02-22T02:09:16.378Z,9.73
2023-02-22T02:11:46.043Z,10.10
2023-02-22T02:14:14.802Z,10.50
2023-02-22T02:16:49.917Z,9.95
2023-02-22T02:19:50.009Z,10.27
2023-02-22T02:22:42.858Z,10.07
2023-02-22T02:25:30.995Z,9.90
2023-02-22T02:28:26.245Z,10.00
2023-02-22T02:30:54.428Z,9.63
2023-02-22T02:33:33.902Z,9.57
2023-02-22T02:36:29.836Z,9.55
2023-02-22T02:39:25.708Z,12.50
2023-02-22T02:41:54.117Z,12.20
2023-02-22T02:44:40.112Z,11.07
2023-02-22T02:47:17.469Z,11.63
2023-02-22T02:50:15.190Z,10.75
2023-02-22T02:52:45.883Z,11.10
2023-02-22T02:55:15.138Z,12.27
2023-02-22T02:57:43.470Z,12.52
2023-02-22T03:00:25.407Z,11.43
2023-02-22T03:02:55.276Z,11.68
2023-02-22T03:06:02.005Z,10.68
2023-02-22T03:08:55.533Z,10.57
2023-02-22T03:11:49.074Z,10.50
2023-02-22T03:14:34.876Z,10.48
2023-02-22T03:17:51.207Z,10.40
2023-02-22T03:20:32.432Z,10.98
2023-02-22T03:23:24.970Z,11.00
2023-02-22T03:26:03.441Z,10.80
2023-02-22T03:28:37.427Z,11.25
2023-02-22T03:31:29.104Z,13.93
2023-02-22T03:34:03.088Z,16.73
2023-02-22T03:36:39.223Z,19.52
2023-02-22T03:39:16.140Z,16.25
2023-02-22T03:41:51.603Z,13.90
2023-02-22T03:44:29.383Z,13.40
2023-02-22T03:47:04.742Z,14.00
2023-02-22T03:50:07.133Z,13.55
2023-02-22T03:52:37.836Z,13.02
2023-02-22T03:55:17.858Z,12.60
2023-02-22T03:57:54.413Z,13.57
2023-02-22T04:00:26.549Z,12.02
2023-02-22T04:02:55.251Z,11.85
2023-02-22T04:05:26.111Z,11.10
2023-02-22T04:07:57.134Z,11.60
2023-02-22T04:10:26.684Z,12.25
2023-02-22T04:12:55.354Z,12.57
2023-02-22T04:15:25.518Z,12.88
2023-02-22T04:17:58.017Z,12.50
2023-02-22T04:20:27.532Z,12.07
2023-02-22T04:23:02.356Z,10.82
2023-02-22T04:25:31.831Z,10.90
2023-02-22T04:28:06.478Z,10.88
2023-02-22T04:30:46.832Z,9.45
2023-02-22T04:33:17.238Z,9.75
2023-02-22T04:35:46.063Z,8.85
2023-02-22T04:38:15.451Z,8.95
2023-02-22T04:40:45.370Z,8.70
2023-02-22T04:43:13.744Z,9.23
2023-02-22T04:45:42.883Z,8.70
2023-02-22T04:48:12.882Z,8.70
2023-02-22T04:50:41.721Z,9.43
2023-02-22T04:53:10.123Z,9.18
2023-02-22T04:55:41.031Z,8.45
2023-02-22T04:58:09.963Z,8.45
2023-02-22T05:00:39.689Z,8.70
2023-02-22T05:03:09.029Z,10.40
2023-02-22T05:05:37.687Z,8.77
2023-02-22T05:08:06.076Z,8.88
2023-02-22T05:10:34.899Z,8.20
2023-02-22T05:13:04.205Z,7.53
2023-02-22T05:15:33.107Z,8.35
2023-02-22T05:18:01.457Z,8.27
2023-02-22T05:20:33.095Z,7.65
2023-02-22T05:23:02.652Z,7.97
2023-02-22T05:25:33.533Z,8.75
2023-02-22T05:28:09.511Z,7.95
2023-02-22T05:30:41.472Z,8.20
2023-02-22T05:33:10.485Z,8.40
2023-02-22T05:35:39.238Z,8.02
2023-02-22T05:38:08.030Z,8.10
2023-02-22T05:40:37.122Z,7.50
2023-02-22T05:43:05.427Z,7.95
2023-02-22T05:45:34.145Z,8.43
2023-02-22T05:48:03.126Z,7.43
2023-02-22T05:53:39.926Z,6.93
2023-02-22T05:56:08.913Z,7.68
2023-02-22T05:58:37.575Z,7.57
2023-02-22T06:01:06.274Z,7.43
2023-02-22T06:03:34.505Z,7.28
2023-02-22T06:06:03.301Z,7.55
2023-02-22T06:08:32.392Z,8.07
2023-02-22T06:11:01.191Z,9.38
2023-02-22T06:13:29.536Z,8.07
2023-02-22T06:15:59.631Z,7.55
2023-02-22T06:18:30.837Z,8.57
2023-02-22T06:21:00.616Z,7.88
2023-02-22T06:23:38.949Z,7.40
2023-02-22T06:26:07.855Z,7.93
2023-02-22T06:28:36.090Z,8.35
2023-02-22T06:31:08.124Z,8.10
2023-02-22T06:33:36.463Z,9.25
2023-02-22T06:36:05.487Z,9.32
2023-02-22T06:38:33.791Z,9.52
2023-02-22T06:41:03.127Z,11.68
2023-02-22T06:43:31.458Z,11.45
2023-02-22T06:46:00.032Z,10.48
2023-02-22T06:48:28.642Z,11.00
2023-02-22T06:50:57.391Z,11.02
2023-02-22T06:53:27.339Z,10.27
2023-02-22T06:55:56.138Z,10.10
2023-02-22T06:58:24.506Z,12.45
2023-02-22T07:00:53.342Z,12.20
2023-02-22T07:03:21.938Z,13.50
2023-02-22T07:05:50.728Z,13.85
2023-02-22T07:08:19.016Z,15.68
2023-02-22T07:10:50.578Z,14.98
2023-02-22T07:13:18.872Z,15.32
2023-02-22T07:15:47.600Z,15.70
2023-02-22T07:18:16.361Z,15.48
2023-02-22T07:20:44.995Z,15.52
2023-02-22T07:23:17.501Z,14.52
2023-02-22T07:25:46.394Z,14.23
2023-02-22T07:28:15.007Z,15.13
2023-02-22T07:30:43.845Z,25.30
2023-02-22T07:33:14.736Z,23.27
2023-02-22T07:35:48.346Z,21.83
2023-02-22T07:38:18.543Z,21.02
2023-02-22T07:40:47.636Z,21.48
2023-02-22T07:43:28.610Z,20.88
2023-02-22T07:45:59.805Z,21.65
2023-02-22T07:48:31.232Z,18.85
2023-02-22T07:51:00.128Z,16.60
2023-02-22T07:53:31.788Z,15.00
2023-02-22T07:58:31.600Z,11.73
2023-02-22T08:01:02.516Z,12.25
2023-02-22T08:03:38.070Z,13.85
2023-02-22T08:06:08.183Z,14.70
2023-02-22T08:08:36.743Z,15.73
2023-02-22T08:11:05.880Z,15.45
2023-02-22T08:13:34.427Z,16.50
2023-02-22T08:16:03.837Z,16.27
2023-02-22T08:18:32.459Z,9.48
2023-02-22T08:21:01.641Z,10.32
2023-02-22T08:23:29.926Z,9.40
2023-02-22T08:26:08.340Z,9.43
2023-02-22T08:28:36.915Z,9.45
2023-02-22T08:31:07.832Z,9.88
2023-02-22T08:33:36.292Z,9.70
2023-02-22T08:36:05.614Z,10.63
2023-02-22T08:38:34.947Z,11.88
2023-02-22T08:41:03.882Z,10.82
2023-02-22T08:43:32.226Z,12.20
2023-02-22T08:46:01.066Z,9.70
2023-02-22T08:48:29.469Z,8.55
2023-02-22T08:50:58.195Z,9.00
2023-02-22T08:53:26.486Z,9.30
2023-02-22T08:55:55.503Z,7.90
2023-02-22T08:58:23.778Z,8.15
2023-02-22T09:00:52.545Z,7.82
2023-02-22T09:03:21.292Z,7.95
2023-02-22T09:05:50.693Z,7.28
2023-02-22T09:08:20.341Z,5.90
2023-02-22T09:10:50.226Z,6.50
2023-02-22T09:13:18.690Z,6.25
2023-02-22T09:15:47.255Z,6.10
2023-02-22T09:18:18.203Z,6.63
2023-02-22T09:20:47.247Z,5.80
2023-02-22T09:23:15.765Z,4.80
2023-02-22T09:25:44.486Z,5.20
2023-02-22T09:28:13.043Z,5.18
2023-02-22T09:30:43.143Z,4.20
2023-02-22T09:33:20.702Z,3.83
2023-02-22T09:35:50.223Z,4.53
2023-02-22T09:38:24.921Z,3.10
2023-02-22T09:41:00.842Z,5.00
2023-02-22T09:43:47.640Z,3.95
2023-02-22T09:46:38.967Z,5.40
2023-02-22T09:49:34.575Z,4.45
2023-02-22T09:52:36.957Z,4.03
2023-02-22T09:55:20.955Z,3.80
2023-02-22T09:57:52.116Z,4.07
2023-02-22T10:00:24.061Z,3.88
2023-02-22T10:03:12.412Z,4.07
2023-02-22T10:05:44.055Z,4.00
2023-02-22T10:08:16.494Z,3.30
2023-02-22T10:10:49.122Z,3.45
2023-02-22T10:13:52.701Z,3.65
2023-02-22T10:16:47.413Z,3.92
2023-02-22T10:19:55.679Z,3.97
2023-02-22T10:22:31.151Z,2.60
2023-02-22T10:25:04.995Z,2.92
2023-02-22T10:27:49.131Z,3.65
2023-02-22T10:30:25.484Z,2.28
2023-02-22T10:33:26.644Z,2.83
2023-02-22T10:35:56.486Z,5.80
2023-02-22T10:38:28.831Z,2.67
2023-02-22T10:41:00.942Z,3.03
2023-02-22T10:43:30.404Z,2.45
2023-02-22T10:46:04.135Z,3.90
2023-02-22T10:48:37.207Z,5.95
2023-02-22T10:51:08.743Z,3.33
2023-02-22T10:53:38.806Z,3.22
2023-02-22T10:56:12.968Z,2.60
2023-02-22T10:58:57.757Z,4.45
2023-02-22T11:01:37.750Z,3.30
2023-02-22T11:04:15.772Z,3.63
2023-02-22T11:07:06.376Z,2.97
2023-02-22T11:09:48.561Z,3.00
2023-02-22T11:12:21.665Z,2.95
2023-02-22T11:14:51.331Z,2.47
2023-02-22T11:17:28.900Z,2.90
2023-02-22T11:19:58.807Z,3.40
2023-02-22T11:22:41.169Z,4.40
2023-02-22T11:25:20.926Z,3.70
2023-02-22T11:27:49.629Z,4.10
2023-02-22T11:30:25.832Z,6.07
2023-02-22T11:33:15.786Z,4.55
2023-02-22T11:35:54.371Z,3.33
2023-02-22T11:38:31.843Z,5.85
2023-02-22T11:41:34.352Z,2.88
2023-02-22T11:44:24.576Z,2.83
2023-02-22T11:46:56.003Z,2.90
2023-02-22T11:49:34.307Z,2.53
2023-02-22T11:52:27.161Z,3.00
2023-02-22T11:55:36.444Z,3.25
2023-02-22T11:58:43.372Z,2.75
2023-02-22T12:01:31.629Z,2.65
2023-02-22T12:04:24.370Z,2.97
2023-02-22T12:07:08.847Z,3.92
2023-02-22T12:09:49.356Z,3.30
2023-02-22T12:12:43.359Z,3.10
2023-02-22T12:15:44.947Z,3.20
2023-02-22T12:18:38.625Z,4.20
2023-02-22T12:21:11.812Z,3.65
2023-02-22T12:23:53.716Z,4.30
2023-02-22T12:26:36.594Z,3.42
2023-02-22T12:29:14.724Z,3.97
2023-02-22T12:31:50.927Z,3.97
2023-02-22T12:34:20.096Z,3.20
2023-02-22T12:37:21.232Z,3.30
2023-02-22T12:39:59.136Z,4.35
2023-02-22T12:42:43.386Z,3.78
2023-02-22T12:45:21.286Z,3.03
2023-02-22T12:47:57.660Z,2.97
2023-02-22T12:50:29.614Z,2.78
2023-02-22T12:53:17.001Z,2.78
2023-02-22T12:55:54.582Z,5.60
2023-02-22T12:59:03.780Z,4.03
2023-02-22T13:01:43.834Z,2.97
2023-02-22T13:04:20.675Z,3.40
2023-02-22T13:07:08.770Z,3.50
2023-02-22T13:09:54.549Z,3.90
2023-02-22T13:12:42.546Z,4.13
2023-02-22T13:15:26.294Z,4.15
2023-02-22T13:18:44.478Z,3.75
2023-02-22T13:21:31.942Z,4.60
2023-02-22T13:24:53.388Z,11.60
2023-02-22T13:27:48.838Z,10.55
2023-02-22T13:30:49.040Z,6.68
2023-02-22T13:33:52.431Z,4.15
2023-02-22T13:36:37.528Z,4.85
2023-02-22T13:43:56.282Z,12.98
2023-02-22T13:47:20.234Z,7.68
2023-02-22T13:50:14.054Z,7.00
2023-02-22T13:52:43.893Z,6.30
2023-02-22T13:55:20.949Z,5.75
2023-02-22T13:57:51.828Z,6.95
2023-02-22T14:00:40.979Z,7.35
2023-02-22T14:03:18.024Z,5.45
2023-02-22T14:05:56.151Z,6.72
2023-02-22T14:08:44.466Z,5.57
2023-02-22T14:11:36.213Z,8.30
2023-02-22T14:14:20.525Z,6.43
2023-02-22T14:17:37.152Z,5.68
2023-02-22T14:20:20.745Z,5.93
2023-02-22T14:22:53.164Z,4.75
2023-02-22T14:26:09.224Z,7.43
2023-02-22T14:29:00.407Z,7.45
2023-02-22T14:31:37.265Z,4.80
2023-02-22T14:34:15.433Z,6.22
2023-02-22T14:36:52.131Z,8.70
2023-02-22T14:39:23.686Z,9.02
2023-02-22T14:42:04.306Z,6.57
2023-02-22T14:44:56.105Z,6.65
2023-02-22T14:47:30.236Z,3.87
2023-02-22T14:50:09.095Z,5.38
2023-02-22T14:52:41.438Z,7.55
2023-02-22T14:55:23.869Z,6.95
2023-02-22T14:58:03.535Z,6.35
2023-02-22T15:00:43.019Z,7.28
2023-02-22T15:03:37.537Z,5.32
2023-02-22T15:06:07.655Z,9.63
2023-02-22T15:08:41.786Z,5.50
2023-02-22T15:11:34.073Z,5.68
2023-02-22T15:14:03.115Z,4.68
2023-02-22T15:16:34.515Z,6.95
2023-02-22T15:19:08.293Z,11.43
2023-02-22T15:21:46.546Z,10.07
2023-02-22T15:24:28.178Z,7.25
2023-02-22T15:29:47.303Z,3.97
2023-02-22T15:32:25.381Z,5.18
2023-02-22T15:34:56.714Z,7.63
2023-02-22T15:37:28.111Z,8.52
2023-02-22T15:40:14.697Z,5.30
2023-02-22T15:42:49.816Z,8.20
2023-02-22T15:45:25.364Z,5.22
2023-02-22T15:47:55.189Z,4.50
2023-02-22T15:50:28.202Z,4.60
2023-02-22T15:52:58.341Z,5.47
2023-02-22T15:55:34.356Z,6.30
2023-02-22T15:58:22.434Z,9.10
2023-02-22T16:01:02.371Z,6.50
2023-02-22T16:03:58.700Z,11.82
2023-02-22T16:06:41.704Z,11.73
2023-02-22T16:09:23.500Z,21.85
2023-02-22T16:12:11.333Z,13.30
2023-02-22T16:14:45.541Z,13.15
2023-02-22T16:17:31.024Z,8.35
2023-02-22T16:20:02.519Z,12.95
2023-02-22T16:22:35.879Z,14.65
2023-02-22T16:25:19.702Z,19.77
2023-02-22T16:27:57.773Z,24.25
2023-02-22T16:30:32.592Z,19.38
2023-02-22T16:33:16.651Z,29.38
2023-02-22T16:35:57.176Z,28.92
2023-02-22T16:38:27.609Z,19.77
2023-02-22T16:40:58.742Z,14.82
2023-02-22T16:43:54.379Z,15.98
2023-02-22T16:47:35.284Z,19.92
2023-02-22T16:50:04.070Z,21.35
2023-02-22T16:52:32.727Z,18.63
2023-02-22T16:55:02.101Z,16.27
2023-02-22T16:57:32.220Z,22.67
2023-02-22T17:00:01.077Z,19.63
2023-02-22T17:02:30.172Z,23.30
2023-02-22T17:04:58.513Z,30.98
2023-02-22T17:07:31.018Z,31.88
2023-02-22T17:09:59.932Z,23.73
2023-02-22T17:12:30.466Z,30.80
2023-02-22T17:14:59.013Z,27.85
2023-02-22T17:17:29.003Z,25.98
2023-02-22T17:19:57.283Z,22.48
2023-02-22T17:22:27.866Z,17.67
2023-02-22T17:24:56.155Z,18.30
2023-02-22T17:27:25.443Z,19.98
2023-02-22T17:29:54.166Z,22.65
2023-02-22T17:32:23.382Z,19.63
2023-02-22T17:34:55.855Z,17.30
2023-02-22T17:37:25.698Z,14.43
2023-02-22T17:39:55.997Z,14.15
2023-02-22T17:50:40.349Z,15.45
2023-02-22T17:53:12.787Z,13.68
2023-02-22T17:55:43.054Z,15.02
2023-02-22T17:58:14.881Z,16.10
2023-02-22T18:00:47.296Z,13.93
2023-02-22T18:06:00.674Z,20.55
2023-02-22T18:08:39.119Z,19.27
2023-02-22T18:11:07.851Z,20.58
2023-02-22T18:13:36.128Z,24.88
2023-02-22T18:16:09.637Z,17.88
2023-02-22T18:18:38.079Z,19.33
2023-02-22T18:21:06.910Z,14.57
2023-02-22T18:23:37.064Z,15.45
2023-02-22T18:26:11.425Z,12.88
2023-02-22T18:28:44.726Z,14.20
2023-02-22T18:31:19.896Z,16.17
2023-02-22T18:33:57.653Z,16.42
2023-02-22T18:36:26.415Z,14.18
2023-02-22T18:38:55.623Z,12.50
2023-02-22T18:41:25.572Z,15.80
2023-02-22T18:43:55.645Z,12.98
2023-02-22T18:46:30.507Z,17.88
2023-02-22T18:48:59.294Z,18.60
2023-02-22T18:51:29.080Z,25.17
2023-02-22T18:54:01.582Z,18.33
2023-02-22T18:56:30.504Z,18.17
2023-02-22T18:59:03.625Z,22.55
2023-02-22T19:01:39.135Z,19.05
2023-02-22T19:04:09.939Z,23.10
2023-02-22T19:06:40.131Z,14.98
2023-02-22T19:09:12.332Z,19.42
2023-02-22T19:11:44.873Z,23.52
2023-02-22T19:14:13.603Z,26.20
2023-02-22T19:16:46.533Z,31.98
2023-02-22T19:19:16.953Z,36.50
2023-02-22T19:21:46.532Z,34.03
2023-02-22T19:24:14.988Z,58.00
2023-02-22T19:26:50.538Z,48.38
2023-02-22T19:29:22.388Z,40.75
2023-02-22T19:32:02.850Z,45.45
2023-02-22T19:34:40.166Z,46.50
2023-02-22T19:37:09.989Z,42.88
2023-02-22T19:40:12.023Z,32.15
2023-02-22T19:42:46.339Z,15.65
2023-02-22T19:45:19.845Z,17.55
2023-02-22T19:48:14.608Z,20.15
2023-02-22T19:51:33.373Z,17.92
2023-02-22T19:54:27.598Z,14.20
2023-02-22T19:57:24.392Z,13.27
2023-02-22T19:59:52.736Z,20.40
2023-02-22T20:02:26.270Z,16.58
2023-02-22T20:04:56.353Z,22.08
2023-02-22T20:07:25.965Z,26.08
2023-02-22T20:09:54.300Z,23.63
2023-02-22T20:12:23.401Z,23.90
2023-02-22T20:14:51.805Z,18.63
2023-02-22T20:17:20.340Z,16.55
2023-02-22T20:19:49.037Z,13.27
2023-02-22T20:22:17.905Z,15.10
2023-02-22T20:24:52.385Z,17.27
2023-02-22T20:27:21.023Z,17.35
2023-02-22T20:30:02.153Z,23.25
2023-02-22T20:32:34.756Z,21.92
2023-02-22T20:35:07.925Z,25.65
2023-02-22T20:38:05.973Z,17.77
2023-02-22T20:40:34.364Z,14.30
2023-02-22T20:45:52.235Z,20.23
2023-02-22T20:48:20.998Z,19.83
2023-02-22T20:51:16.181Z,18.52
2023-02-22T20:53:45.154Z,21.55
2023-02-22T20:56:43.294Z,18.38
2023-02-22T20:59:20.999Z,21.60
2023-02-22T21:01:53.356Z,19.88
2023-02-22T21:04:22.650Z,20.58
2023-02-22T21:06:52.345Z,17.55
2023-02-22T21:09:21.382Z,17.95
2023-02-22T21:11:51.034Z,18.50
2023-02-22T21:14:20.336Z,21.77
2023-02-22T21:16:52.148Z,16.50
2023-02-22T21:19:26.264Z,21.27
2023-02-22T21:21:57.400Z,19.80
2023-02-22T21:24:28.429Z,21.25
2023-02-22T21:27:22.498Z,23.83
2023-02-22T21:29:52.130Z,26.17
2023-02-22T21:32:20.582Z,22.15
2023-02-22T21:34:49.605Z,22.85
2023-02-22T21:37:18.554Z,18.30
2023-02-22T21:39:47.733Z,23.77
2023-02-22T21:42:15.979Z,22.35
2023-02-22T21:44:44.565Z,23.10
2023-02-22T21:47:18.099Z,19.25
2023-02-22T21:49:47.030Z,18.75
2023-02-22T21:52:16.360Z,16.33
2023-02-22T21:54:45.105Z,15.15
2023-02-22T21:57:15.108Z,18.67
2023-02-22T21:59:43.892Z,16.60
2023-02-22T22:02:12.264Z,14.52
2023-02-22T22:04:41.334Z,13.60
2023-02-22T22:09:57.748Z,16.67
2023-02-22T22:12:37.519Z,15.40
2023-02-22T22:16:47.422Z,16.67
2023-02-22T22:19:16.712Z,16.45
2023-02-22T22:22:10.948Z,14.63
2023-02-22T22:24:41.835Z,14.18
2023-02-22T22:27:12.975Z,14.57
2023-02-22T22:29:43.522Z,16.50
2023-02-22T22:32:12.068Z,18.58
2023-02-22T22:34:42.641Z,19.10
2023-02-22T22:37:10.950Z,18.95
2023-02-22T22:39:39.569Z,20.00
2023-02-22T22:42:09.299Z,20.40
2023-02-22T22:44:50.428Z,17.48
2023-02-22T22:47:19.553Z,18.88
2023-02-22T22:49:48.349Z,17.90
2023-02-22T22:52:18.459Z,15.90
2023-02-22T22:54:46.986Z,17.50
2023-02-22T22:57:15.677Z,19.48
2023-02-22T22:59:44.240Z,17.33
2023-02-22T23:02:12.517Z,18.17
2023-02-22T23:04:41.094Z,17.52
2023-02-22T23:07:09.449Z,16.90
2023-02-22T23:09:39.554Z,16.48
2023-02-22T23:12:17.178Z,15.68
2023-02-22T23:14:46.369Z,13.68
2023-02-22T23:17:26.935Z,11.80
2023-02-22T23:19:56.177Z,9.80
2023-02-22T23:22:24.579Z,9.45
2023-02-22T23:24:54.692Z,12.93
2023-02-22T23:27:23.926Z,15.75
2023-02-22T23:29:52.784Z,13.80
2023-02-22T23:32:21.148Z,11.15
2023-02-22T23:34:49.874Z,9.52
2023-02-22T23:37:20.824Z,8.93
2023-02-22T23:39:51.203Z,9.63
2023-02-22T23:42:57.712Z,9.73
2023-02-22T23:45:27.508Z,9.93
2023-02-22T23:48:00.847Z,9.00
2023-02-22T23:50:31.048Z,9.52
2023-02-22T23:53:03.651Z,12.15
2023-02-22T23:55:39.453Z,16.63
2023-02-22T23:58:08.050Z,17.27
